Time;durP1;ratioP1;P1;durP2;ratioP2;P2;SDS_P1;SDS_P2;PMS_P1;PMS_P2;Temp;Humidity;BMP_temperature;BMP_pressure;BME280_temperature;BME280_humidity;BME280_pressure;Samples;Min_cycle;Max_cycle;Signal;HPM_P1;HPM_P2
2021/09/16 00:01:07;;;;;;;4.00;1.60;;;14.90;99.90;;;;;;5031709;28;20674;-62
2021/09/16 00:03:33;;;;;;;5.33;1.70;;;14.90;1.00;;;;;;5035335;28;20202;-62
2021/09/16 00:06:00;;;;;;;5.13;1.83;;;14.90;1.00;;;;;;5034843;28;20226;-62
2021/09/16 00:08:27;;;;;;;4.60;1.60;;;14.80;99.90;;;;;;5034981;28;20260;-62
2021/09/16 00:10:55;;;;;;;6.63;1.90;;;14.70;1.00;;;;;;5034957;28;20268;-62
2021/09/16 00:13:22;;;;;;;4.00;1.70;;;14.60;82.50;;;;;;5034707;28;20210;-62
2021/09/16 00:15:49;;;;;;;3.67;1.30;;;14.60;99.90;;;;;;5034907;28;20219;-62
2021/09/16 00:18:16;;;;;;;7.00;1.63;;;14.60;1.00;;;;;;5035078;28;20207;-62
2021/09/16 00:20:42;;;;;;;7.50;1.73;;;14.60;1.00;;;;;;5034739;28;20260;-62
2021/09/16 00:23:09;;;;;;;4.00;1.07;;;14.60;82.80;;;;;;5034494;28;20618;-62
2021/09/16 00:25:36;;;;;;;4.17;1.17;;;14.50;99.90;;;;;;5034654;28;20615;-62
2021/09/16 00:28:04;;;;;;;5.27;1.80;;;14.50;1.00;;;;;;5034419;28;20252;-62
2021/09/16 00:30:31;;;;;;;4.83;1.33;;;14.40;1.00;;;;;;5034947;28;20221;-62
2021/09/16 00:32:58;;;;;;;8.10;1.57;;;14.30;1.00;;;;;;5034753;28;20279;-62
2021/09/16 00:35:24;;;;;;;5.23;1.97;;;14.30;1.00;;;;;;5034337;28;20206;-62
2021/09/16 00:37:51;;;;;;;6.83;1.70;;;14.30;99.90;;;;;;5034619;28;20206;-62
2021/09/16 00:40:18;;;;;;;3.00;1.13;;;14.30;49.10;;;;;;5034679;28;20210;-62
2021/09/16 00:42:45;;;;;;;3.47;1.13;;;14.30;71.30;;;;;;5034257;28;20263;-62
2021/09/16 00:45:13;;;;;;;3.30;1.40;;;14.20;1.00;;;;;;5034259;28;20222;-62
2021/09/16 00:47:44;;;;;;;3.57;1.23;;;14.20;1.00;;;;;;5034402;28;20284;-62
2021/09/16 00:50:12;;;;;;;2.57;1.10;;;14.30;1.00;;;;;;5034267;28;20689;-62
2021/09/16 00:52:40;;;;;;;6.27;1.70;;;14.20;99.90;;;;;;5034120;28;20667;-62
2021/09/16 00:55:08;;;;;;;3.60;1.10;;;14.30;1.00;;;;;;5033826;28;20202;-62
2021/09/16 00:57:35;;;;;;;2.10;1.07;;;14.20;1.00;;;;;;5034436;28;20222;-63
2021/09/16 01:00:05;;;;;;;6.50;1.10;;;14.20;6.70;;;;;;5034230;28;20276;-62
2021/09/16 01:02:33;;;;;;;4.63;1.57;;;14.20;99.90;;;;;;5034366;28;20206;-62
2021/09/16 01:05:00;;;;;;;7.63;1.40;;;14.20;99.90;;;;;;5033988;28;20234;-62
2021/09/16 01:07:27;;;;;;;3.90;1.63;;;14.20;99.90;;;;;;5034463;28;20256;-62
2021/09/16 01:09:54;;;;;;;3.43;2.57;;;14.20;1.50;;;;;;5034189;28;20210;-62
2021/09/16 01:12:21;;;;;;;5.37;2.60;;;14.20;99.90;;;;;;5033594;28;20261;-62
2021/09/16 01:14:47;;;;;;;4.43;2.50;;;14.20;99.90;;;;;;5033877;28;20245;-63
2021/09/16 01:17:14;;;;;;;5.93;2.57;;;14.20;99.90;;;;;;5033760;28;20276;-62
2021/09/16 01:19:42;;;;;;;5.93;3.30;;;14.20;1.00;;;;;;5033823;28;20240;-62
2021/09/16 01:22:15;;;;;;;4.30;2.57;;;14.20;1.00;;;;;;5033378;28;20233;-62
2021/09/16 01:24:43;;;;;;;4.47;2.57;;;14.30;99.90;;;;;;5033683;28;20284;-62
2021/09/16 01:27:10;;;;;;;4.87;2.40;;;14.30;99.90;;;;;;5033367;28;20638;-62
2021/09/16 01:29:36;;;;;;;4.33;2.30;;;14.30;99.90;;;;;;5033736;28;20206;-62
2021/09/16 01:32:05;;;;;;;4.73;2.43;;;14.30;99.90;;;;;;5033342;28;20203;-62
2021/09/16 01:34:32;;;;;;;4.80;2.50;;;14.30;1.00;;;;;;5033565;28;20206;-62
2021/09/16 01:37:00;;;;;;;3.93;1.97;;;14.40;1.00;;;;;;5033286;28;20285;-62
2021/09/16 01:39:27;;;;;;;6.23;2.30;;;14.40;1.00;;;;;;5033596;28;20268;-62
2021/09/16 01:41:55;;;;;;;4.50;2.07;;;14.40;1.00;;;;;;5033551;28;20206;-62
2021/09/16 01:44:21;;;;;;;4.43;1.77;;;14.40;1.00;;;;;;5033340;28;20206;-62
2021/09/16 01:46:48;;;;;;;4.10;1.70;;;14.40;1.00;;;;;;5033229;28;20234;-62
2021/09/16 01:49:15;;;;;;;3.33;1.60;;;14.40;1.00;;;;;;5033603;28;20190;-62
2021/09/16 01:51:41;;;;;;;2.73;1.77;;;14.40;1.00;;;;;;5033484;28;20218;-62
2021/09/16 01:54:08;;;;;;;3.73;1.90;;;14.40;15.20;;;;;;5033154;28;20631;-62
2021/09/16 01:56:35;;;;;;;4.93;2.10;;;14.40;52.10;;;;;;5032928;28;20230;-64
2021/09/16 01:59:03;;;;;;;7.23;1.73;;;14.40;99.90;;;;;;5033234;28;20210;-62
2021/09/16 02:01:30;;;;;;;3.30;1.63;;;14.40;99.90;;;;;;5032848;28;20269;-62
2021/09/16 02:03:57;;;;;;;5.80;2.10;;;14.50;99.90;;;;;;5032737;28;20269;-61
2021/09/16 02:06:23;;;;;;;6.80;1.57;;;14.50;99.90;;;;;;5032720;28;20230;-62
2021/09/16 02:08:50;;;;;;;7.37;1.80;;;14.50;99.90;;;;;;5032854;28;20206;-62
2021/09/16 02:11:17;;;;;;;3.97;1.80;;;14.50;99.90;;;;;;5032462;28;20674;-62
2021/09/16 02:13:44;;;;;;;7.20;2.07;;;14.50;99.90;;;;;;5032628;28;20260;-62
2021/09/16 02:16:12;;;;;;;4.10;1.53;;;14.50;99.90;;;;;;5032308;28;20630;-62
2021/09/16 02:18:39;;;;;;;3.53;1.60;;;14.50;99.90;;;;;;5032504;28;20902;-63
2021/09/16 02:21:05;;;;;;;8.03;1.57;;;14.50;99.90;;;;;;5032392;28;20682;-62
2021/09/16 02:23:32;;;;;;;4.83;1.90;;;14.50;99.90;;;;;;5032293;28;20264;-62
2021/09/16 02:25:59;;;;;;;6.33;2.10;;;14.50;99.90;;;;;;5032006;28;20230;-62
2021/09/16 02:28:25;;;;;;;3.70;2.17;;;14.50;1.00;;;;;;5032388;28;20206;-62
2021/09/16 02:30:52;;;;;;;5.50;2.27;;;14.40;99.90;;;;;;5032639;28;20210;-62
2021/09/16 02:33:20;;;;;;;5.47;2.30;;;14.40;99.90;;;;;;5032539;28;20271;-63
2021/09/16 02:35:51;;;;;;;5.93;2.50;;;14.40;99.90;;;;;;5032118;28;20797;-62
2021/09/16 02:38:19;;;;;;;6.27;2.60;;;14.40;1.00;;;;;;5032376;28;20210;-62
2021/09/16 02:40:45;;;;;;;5.10;2.47;;;14.30;99.90;;;;;;5032336;28;20289;-63
2021/09/16 02:43:12;;;;;;;7.77;2.20;;;14.20;1.00;;;;;;5032121;28;20206;-62
2021/09/16 02:45:40;;;;;;;4.03;1.60;;;14.20;38.50;;;;;;5031748;28;20234;-62
2021/09/16 02:48:07;;;;;;;6.60;2.10;;;14.20;99.90;;;;;;5031912;28;20222;-62
2021/09/16 02:50:35;;;;;;;9.13;2.33;;;14.20;1.00;;;;;;5032067;28;20674;-63
2021/09/16 02:53:02;;;;;;;8.23;2.63;;;14.10;73.60;;;;;;5032354;28;20260;-62
2021/09/16 02:55:28;;;;;;;5.43;2.00;;;14.10;99.90;;;;;;5031940;28;20230;-62
2021/09/16 02:57:55;;;;;;;5.13;1.93;;;14.00;1.00;;;;;;5032114;28;20206;-62
2021/09/16 03:00:22;;;;;;;3.57;1.60;;;14.00;1.00;;;;;;5031914;28;20256;-62
2021/09/16 03:02:49;;;;;;;8.60;1.80;;;13.90;99.90;;;;;;5032090;28;20341;-62
2021/09/16 03:05:15;;;;;;;6.50;1.93;;;13.80;1.00;;;;;;5032103;28;20229;-62
2021/09/16 03:07:44;;;;;;;4.50;1.80;;;13.80;99.90;;;;;;5031917;28;20226;-62
2021/09/16 03:10:13;;;;;;;5.97;2.40;;;13.70;1.00;;;;;;5032107;28;20190;-62
2021/09/16 03:12:39;;;;;;;6.47;2.20;;;13.70;26.20;;;;;;5031852;28;20298;-62
2021/09/16 03:15:07;;;;;;;4.57;1.80;;;13.70;29.10;;;;;;5031797;28;20213;-62
2021/09/16 03:17:34;;;;;;;5.53;1.93;;;13.60;1.00;;;;;;5032003;28;20282;-62
2021/09/16 03:20:00;;;;;;;5.17;1.70;;;13.60;99.90;;;;;;5031847;28;20264;-62
2021/09/16 03:22:27;;;;;;;4.47;1.73;;;13.60;1.00;;;;;;5031958;28;20210;-62
2021/09/16 03:24:55;;;;;;;6.13;1.63;;;13.60;1.00;;;;;;5031619;28;20214;-61
2021/09/16 03:27:21;;;;;;;5.83;1.60;;;13.50;89.60;;;;;;5031875;28;20222;-62
2021/09/16 03:29:48;;;;;;;5.87;2.03;;;13.50;99.90;;;;;;5031742;28;20206;-63
2021/09/16 03:32:15;;;;;;;5.83;2.13;;;13.50;99.90;;;;;;5031858;28;20260;-62
2021/09/16 03:34:42;;;;;;;9.57;2.17;;;13.40;1.00;;;;;;5031834;28;20583;-62
2021/09/16 03:37:08;;;;;;;5.97;2.10;;;13.40;99.90;;;;;;5035386;28;20222;-62
2021/09/16 03:39:35;;;;;;;6.93;2.20;;;13.30;23.00;;;;;;5035705;28;20214;-62
2021/09/16 03:42:03;;;;;;;2.97;1.77;;;13.30;99.90;;;;;;5035396;28;20670;-62
2021/09/16 03:44:30;;;;;;;1.90;1.30;;;13.30;2.60;;;;;;5035372;28;20736;-62
2021/09/16 03:46:57;;;;;;;3.00;2.07;;;13.30;76.00;;;;;;5035085;28;20234;-62
2021/09/16 03:49:23;;;;;;;6.63;2.00;;;13.20;99.90;;;;;;5035350;28;20685;-62
2021/09/16 03:51:50;;;;;;;5.43;2.00;;;13.20;99.90;;;;;;5035470;28;20241;-62
2021/09/16 03:54:17;;;;;;;7.63;2.00;;;13.20;99.90;;;;;;5035069;28;20210;-62
2021/09/16 03:56:43;;;;;;;6.60;2.57;;;13.10;99.90;;;;;;5035184;28;20228;-62
2021/09/16 03:59:11;;;;;;;4.03;1.93;;;13.10;99.90;;;;;;5035179;28;20759;-62
2021/09/16 04:01:38;;;;;;;4.70;1.80;;;13.10;1.00;;;;;;5035286;28;20337;-61
2021/09/16 04:04:05;;;;;;;4.63;2.10;;;13.00;1.00;;;;;;5035076;28;20217;-62
2021/09/16 04:06:32;;;;;;;7.63;2.10;;;13.00;93.90;;;;;;5034822;28;20237;-62
2021/09/16 04:08:58;;;;;;;6.87;2.13;;;13.00;99.90;;;;;;5035013;28;20220;-62
2021/09/16 04:11:25;;;;;;;7.47;2.40;;;12.90;99.90;;;;;;5035116;28;20214;-62
2021/09/16 04:13:52;;;;;;;15.20;2.93;;;12.90;99.90;;;;;;5034809;28;20267;-62
2021/09/16 04:16:20;;;;;;;7.07;2.93;;;12.90;99.90;;;;;;5034728;28;20233;-61
2021/09/16 04:18:46;;;;;;;9.10;3.43;;;12.80;99.90;;;;;;5033426;28;20595;-61
2021/09/16 04:21:13;;;;;;;11.10;3.87;;;12.80;99.90;;;;;;5034171;28;20718;-62
2021/09/16 04:23:40;;;;;;;6.10;2.87;;;12.80;99.90;;;;;;5034196;28;20245;-62
2021/09/16 04:26:06;;;;;;;7.63;3.23;;;12.70;99.90;;;;;;5030970;28;20234;-61
2021/09/16 04:28:33;;;;;;;8.80;3.50;;;12.70;99.90;;;;;;5020329;28;20207;-60
2021/09/16 04:31:00;;;;;;;6.43;3.30;;;12.70;99.90;;;;;;5034419;28;20248;-61
2021/09/16 04:33:28;;;;;;;6.77;3.70;;;12.60;1.00;;;;;;5034336;28;20674;-61
2021/09/16 04:35:54;;;;;;;8.83;4.27;;;12.60;1.00;;;;;;5033783;28;20242;-59
2021/09/16 04:38:21;;;;;;;7.63;3.87;;;12.60;1.00;;;;;;5034477;28;20260;-61
2021/09/16 04:40:48;;;;;;;8.40;4.27;;;12.60;1.00;;;;;;5040549;28;20210;-61
2021/09/16 04:43:15;;;;;;;11.50;4.93;;;12.70;1.00;;;;;;5041210;28;20283;-61
2021/09/16 04:45:41;;;;;;;12.70;4.80;;;12.70;1.00;;;;;;5033812;28;20630;-61
2021/09/16 04:48:08;;;;;;;9.10;5.00;;;12.70;1.00;;;;;;5033325;28;20216;-61
2021/09/16 04:50:36;;;;;;;17.23;5.40;;;12.70;1.00;;;;;;5033816;28;20209;-61
2021/09/16 04:53:03;;;;;;;12.57;5.53;;;12.60;1.00;;;;;;5034297;28;20208;-61
2021/09/16 04:55:30;;;;;;;12.17;5.40;;;12.60;1.00;;;;;;5033859;28;20206;-61
2021/09/16 04:57:56;;;;;;;13.57;5.83;;;12.60;1.00;;;;;;5033788;28;20268;-61
2021/09/16 05:00:23;;;;;;;10.90;5.90;;;12.60;1.00;;;;;;5033979;28;20202;-61
2021/09/16 05:02:50;;;;;;;15.03;6.10;;;12.60;1.00;;;;;;5033924;28;20620;-61
2021/09/16 05:05:16;;;;;;;12.80;7.17;;;12.60;1.00;;;;;;5033683;28;20644;-61
2021/09/16 05:07:44;;;;;;;13.37;6.93;;;12.50;1.00;;;;;;5033770;28;20234;-61
2021/09/16 05:10:11;;;;;;;16.30;7.53;;;12.50;1.00;;;;;;5034075;28;20262;-61
2021/09/16 05:12:38;;;;;;;15.73;8.40;;;12.40;1.00;;;;;;5033631;28;20212;-61
2021/09/16 05:15:06;;;;;;;15.83;8.53;;;12.40;1.00;;;;;;5033389;28;20217;-61
2021/09/16 05:17:32;;;;;;;17.30;8.60;;;12.40;1.00;;;;;;5033595;28;20645;-61
2021/09/16 05:19:59;;;;;;;17.63;8.37;;;12.40;1.00;;;;;;5033402;28;20673;-61
2021/09/16 05:22:26;;;;;;;12.67;7.90;;;12.40;1.00;;;;;;5033344;28;20221;-65
2021/09/16 05:24:54;;;;;;;16.03;8.40;;;12.40;3.10;;;;;;5040085;28;20290;-65
2021/09/16 05:27:21;;;;;;;16.43;9.13;;;12.40;15.20;;;;;;5052786;28;20253;-65
2021/09/16 05:29:48;;;;;;;16.33;9.60;;;12.40;31.30;;;;;;5053159;28;20558;-66
2021/09/16 05:32:14;;;;;;;18.13;9.67;;;12.50;56.30;;;;;;5052838;28;20420;-58
2021/09/16 05:34:41;;;;;;;19.30;9.93;;;12.50;85.40;;;;;;5052606;28;20255;-57
2021/09/16 05:37:08;;;;;;;18.70;10.40;;;12.50;99.90;;;;;;5052949;28;20257;-60
2021/09/16 05:39:34;;;;;;;20.90;10.07;;;12.60;99.90;;;;;;5052964;28;20217;-59
2021/09/16 05:42:02;;;;;;;13.80;10.40;;;12.70;99.90;;;;;;5052820;28;20217;-61
2021/09/16 05:44:29;;;;;;;13.47;9.70;;;12.70;99.90;;;;;;5052299;28;20274;-60
2021/09/16 05:46:56;;;;;;;15.53;9.60;;;12.80;99.90;;;;;;5052143;28;20681;-59
2021/09/16 05:49:22;;;;;;;19.73;9.20;;;12.80;99.90;;;;;;5039124;28;20201;-61
2021/09/16 05:51:49;;;;;;;14.97;8.97;;;12.90;99.00;;;;;;5032948;28;20582;-60
2021/09/16 05:54:16;;;;;;;15.87;8.93;;;12.90;86.80;;;;;;5032974;28;20213;-60
2021/09/16 05:56:42;;;;;;;11.33;8.33;;;12.90;56.20;;;;;;5032474;28;20218;-60
2021/09/16 05:59:10;;;;;;;12.37;8.77;;;13.00;28.80;;;;;;5031727;28;20202;-61
2021/09/16 06:01:37;;;;;;;12.73;8.70;;;13.00;16.40;;;;;;5032687;28;20221;-62
2021/09/16 06:04:04;;;;;;;15.30;8.87;;;13.10;19.70;;;;;;5032646;28;20560;-64
2021/09/16 06:06:30;;;;;;;17.90;8.70;;;13.10;11.70;;;;;;5046265;28;20791;-62
2021/09/16 06:08:57;;;;;;;13.13;7.60;;;13.20;8.20;;;;;;5052151;28;20220;-62
2021/09/16 06:11:25;;;;;;;12.63;8.83;;;13.20;1.00;;;;;;5052125;28;20669;-61
2021/09/16 06:13:54;;;;;;;13.70;7.93;;;13.30;1.00;;;;;;5051902;28;20292;-62
2021/09/16 06:16:22;;;;;;;13.07;8.03;;;13.30;1.00;;;;;;5051767;28;20280;-62
2021/09/16 06:18:49;;;;;;;13.67;7.43;;;13.30;1.00;;;;;;5052244;28;20217;-61
2021/09/16 06:21:16;;;;;;;12.20;7.63;;;13.30;1.00;;;;;;5052139;28;20205;-61
2021/09/16 06:23:43;;;;;;;12.63;7.60;;;13.40;1.00;;;;;;5052024;28;20213;-61
2021/09/16 06:26:30;;;;;;;12.30;7.07;;;13.40;1.00;;;;;;5106709;22;20323;-61
2021/09/16 06:28:57;;;;;;;14.70;7.10;;;13.50;1.00;;;;;;5026134;28;20214;-60
2021/09/16 06:31:25;;;;;;;12.20;7.03;;;13.60;1.00;;;;;;5032115;28;20622;-59
2021/09/16 06:33:51;;;;;;;10.87;6.57;;;13.70;1.00;;;;;;5031936;28;20356;-58
2021/09/16 06:36:18;;;;;;;14.47;7.03;;;13.80;1.00;;;;;;5031628;28;20226;-61
2021/09/16 06:38:45;;;;;;;13.47;6.10;;;13.80;1.00;;;;;;5031446;28;20206;-61
2021/09/16 06:41:12;;;;;;;14.30;5.90;;;13.80;99.90;;;;;;5031747;28;20264;-61
2021/09/16 06:43:38;;;;;;;9.60;5.53;;;13.80;99.90;;;;;;5031914;28;20260;-61
2021/09/16 06:46:05;;;;;;;10.33;6.30;;;13.80;99.90;;;;;;5031183;28;20226;-60
2021/09/16 06:48:33;;;;;;;11.00;5.63;;;13.90;99.90;;;;;;5033019;28;20206;-61
2021/09/16 06:51:00;;;;;;;12.13;6.30;;;13.90;99.90;;;;;;5031845;28;20203;-61
2021/09/16 06:53:26;;;;;;;11.53;6.03;;;13.90;99.90;;;;;;5031534;28;20272;-59
2021/09/16 06:55:53;;;;;;;9.27;5.90;;;14.00;99.90;;;;;;5031343;28;20222;-62
2021/09/16 06:58:19;;;;;;;11.10;6.57;;;14.00;99.90;;;;;;5031668;28;20209;-61
2021/09/16 07:00:46;;;;;;;11.20;5.73;;;14.00;99.90;;;;;;5031687;28;20241;-62
2021/09/16 07:03:13;;;;;;;9.57;5.83;;;13.90;99.90;;;;;;5031658;28;20210;-63
2021/09/16 07:05:41;;;;;;;10.90;6.03;;;13.90;99.90;;;;;;5031036;28;20210;-62
2021/09/16 07:08:07;;;;;;;12.13;6.17;;;13.80;99.90;;;;;;5031228;28;20229;-60
2021/09/16 07:10:34;;;;;;;12.20;6.73;;;13.90;1.00;;;;;;5033406;28;20209;-61
2021/09/16 07:13:01;;;;;;;11.37;7.10;;;13.90;1.00;;;;;;5036027;28;20214;-60
2021/09/16 07:15:28;;;;;;;12.93;6.73;;;13.90;1.00;;;;;;5035430;28;20214;-59
2021/09/16 07:17:54;;;;;;;9.33;6.37;;;14.00;1.00;;;;;;5035806;28;20256;-60
2021/09/16 07:20:21;;;;;;;11.27;6.53;;;14.00;1.00;;;;;;5035630;28;20248;-60
2021/09/16 07:22:49;;;;;;;12.97;7.30;;;14.00;1.00;;;;;;5035712;28;20272;-60
2021/09/16 07:25:16;;;;;;;11.23;7.03;;;14.00;1.00;;;;;;5035030;28;20296;-60
2021/09/16 07:27:42;;;;;;;13.03;7.27;;;14.00;1.00;;;;;;5035165;28;20234;-60
2021/09/16 07:30:10;;;;;;;10.13;6.83;;;14.00;1.00;;;;;;5035330;28;20260;-61
2021/09/16 07:32:37;;;;;;;13.23;8.07;;;14.00;1.00;;;;;;5035340;28;20205;-61
2021/09/16 07:35:04;;;;;;;12.80;7.07;;;14.00;1.00;;;;;;5034600;28;20206;-64
2021/09/16 07:37:31;;;;;;;11.87;7.70;;;13.90;1.00;;;;;;5035151;28;20710;-64
2021/09/16 07:40:00;;;;;;;14.10;7.90;;;13.90;1.00;;;;;;5035310;28;20206;-62
2021/09/16 07:42:27;;;;;;;13.17;8.20;;;13.90;1.00;;;;;;5035191;28;20202;-61
2021/09/16 07:44:53;;;;;;;14.30;7.60;;;14.00;1.00;;;;;;5035065;28;20264;-61
2021/09/16 07:47:20;;;;;;;15.60;9.00;;;14.00;5.60;;;;;;5034635;28;20226;-61
2021/09/16 07:49:47;;;;;;;10.80;8.23;;;14.00;1.00;;;;;;5035058;28;20260;-61
2021/09/16 07:52:15;;;;;;;13.03;8.57;;;14.00;1.00;;;;;;5035014;28;20210;-61
2021/09/16 07:54:42;;;;;;;15.03;9.10;;;14.00;1.00;;;;;;5034636;28;20202;-59
2021/09/16 07:57:10;;;;;;;11.20;8.80;;;14.00;4.30;;;;;;5034729;28;20218;-65
2021/09/16 07:59:37;;;;;;;13.00;8.83;;;14.10;1.00;;;;;;5034995;28;20260;-66
2021/09/16 08:02:04;;;;;;;12.17;8.90;;;14.10;1.00;;;;;;5034598;28;20240;-66
2021/09/16 08:04:30;;;;;;;12.87;8.50;;;14.20;1.00;;;;;;5034267;28;20232;-62
2021/09/16 08:12:09;;;;;;;12.33;8.00;;;14.40;1.00;;;;;;5095091;22;20245;-62
2021/09/16 08:14:36;;;;;;;11.33;8.60;;;14.50;1.00;;;;;;5034263;28;20685;-62
2021/09/16 08:17:03;;;;;;;11.63;8.33;;;14.50;1.00;;;;;;5034314;28;20237;-62
2021/09/16 08:19:31;;;;;;;11.90;8.00;;;14.50;1.00;;;;;;5034431;28;20206;-62
2021/09/16 08:21:58;;;;;;;11.77;7.77;;;14.50;1.00;;;;;;5033512;28;20301;-62
2021/09/16 08:24:25;;;;;;;11.63;7.67;;;14.60;1.00;;;;;;5034288;28;20646;-62
2021/09/16 08:26:52;;;;;;;13.73;8.60;;;14.70;1.00;;;;;;5033845;28;20227;-63
2021/09/16 08:29:20;;;;;;;14.93;8.57;;;14.80;1.00;;;;;;5034414;28;20214;-65
2021/09/16 08:31:46;;;;;;;14.40;7.93;;;14.90;99.90;;;;;;5034364;28;20210;-64
2021/09/16 08:34:13;;;;;;;12.90;8.20;;;15.00;99.90;;;;;;5034321;28;20245;-66
2021/09/16 08:43:39;;;;;;;13.23;8.80;;;15.00;99.90;;;;;;4928361;29;20418;-67
2021/09/16 08:46:08;;;;;;;15.83;8.03;;;15.20;99.90;;;;;;4987796;28;20757;-66
2021/09/16 08:48:37;;;;;;;14.07;8.50;;;15.20;99.90;;;;;;5034189;28;20237;-69
2021/09/16 08:51:18;;;;;;;12.57;8.77;;;15.30;74.80;;;;;;5034224;28;20221;-70
2021/09/16 08:53:46;;;;;;;20.60;8.90;;;15.40;1.00;;;;;;5033815;28;20213;-64
2021/09/16 08:56:14;;;;;;;12.03;8.30;;;15.50;1.00;;;;;;5033334;28;20222;-64
2021/09/16 08:58:45;;;;;;;13.73;9.07;;;15.50;99.90;;;;;;5033686;28;20203;-65
2021/09/16 09:01:14;;;;;;;16.87;8.77;;;15.50;99.90;;;;;;5033741;28;20211;-66
2021/09/16 09:03:41;;;;;;;14.70;8.80;;;15.60;1.00;;;;;;5033435;28;20666;-67
2021/09/16 09:06:27;;;;;;;14.73;8.00;;;15.60;99.90;;;;;;5033017;28;20283;-67
2021/09/16 09:09:11;;;;;;;9.93;7.57;;;15.70;99.90;;;;;;5033606;28;20237;-67
2021/09/16 09:12:09;;;;;;;10.63;7.20;;;15.70;99.90;;;;;;5034301;28;20195;-67
2021/09/16 09:14:38;;;;;;;11.47;7.40;;;15.80;99.90;;;;;;4971808;28;20212;-68
2021/09/16 09:17:16;;;;;;;12.83;6.90;;;16.00;99.90;;;;;;5020330;28;20245;-67
2021/09/16 09:19:43;;;;;;;12.73;7.67;;;16.10;99.90;;;;;;5033580;28;20209;-66
2021/09/16 09:22:10;;;;;;;11.30;7.83;;;16.20;1.00;;;;;;5033495;28;20217;-66
2021/09/16 09:24:39;;;;;;;15.17;7.37;;;16.30;99.90;;;;;;5033004;28;20206;-64
2021/09/16 09:27:25;;;;;;;14.70;7.43;;;16.40;99.90;;;;;;5032973;28;20710;-66
2021/09/16 09:30:08;;;;;;;10.10;7.60;;;16.50;1.00;;;;;;5033271;28;20202;-64
2021/09/16 09:32:48;;;;;;;11.93;7.50;;;16.60;99.90;;;;;;5033650;28;20194;-62
2021/09/16 09:35:31;;;;;;;12.20;7.70;;;16.70;99.90;;;;;;5032889;28;20214;-63
2021/09/16 09:37:59;;;;;;;11.57;7.00;;;16.90;1.00;;;;;;5032900;28;20202;-63
2021/09/16 09:40:27;;;;;;;16.47;8.33;;;17.00;99.90;;;;;;5033520;28;20633;-67
2021/09/16 09:42:54;;;;;;;11.03;8.67;;;17.00;99.90;;;;;;5033894;28;20229;-65
2021/09/16 09:45:21;;;;;;;15.33;8.47;;;17.00;99.90;;;;;;5033190;28;20210;-66
2021/09/16 09:47:50;;;;;;;11.87;8.47;;;16.90;98.00;;;;;;5033162;28;20226;-62
2021/09/16 09:50:19;;;;;;;11.43;8.60;;;16.90;1.00;;;;;;5032836;28;20206;-64
2021/09/16 09:52:46;;;;;;;12.00;7.73;;;17.00;99.90;;;;;;5033104;28;20268;-62
2021/09/16 09:55:14;;;;;;;13.13;7.90;;;17.20;99.30;;;;;;5032513;28;20206;-66
2021/09/16 09:57:41;;;;;;;13.30;8.10;;;17.30;99.90;;;;;;5033164;28;20226;-64
2021/09/16 10:00:10;;;;;;;10.40;7.17;;;17.30;99.90;;;;;;5032942;28;20206;-62
2021/09/16 10:02:45;;;;;;;8.23;6.10;;;17.40;24.00;;;;;;5032603;28;20628;-62
2021/09/16 10:05:26;;;;;;;11.13;6.90;;;17.60;99.90;;;;;;5031901;28;20209;-62
2021/09/16 10:07:54;;;;;;;9.27;6.60;;;17.60;95.30;;;;;;5032773;28;20230;-64
2021/09/16 10:10:22;;;;;;;13.17;7.23;;;17.60;1.00;;;;;;5032952;28;20214;-64
2021/09/16 10:12:51;;;;;;;9.50;7.07;;;17.60;99.90;;;;;;5032329;28;20213;-60
2021/09/16 10:15:20;;;;;;;8.97;6.67;;;17.60;1.00;;;;;;5031931;28;20218;-58
2021/09/16 10:17:48;;;;;;;12.43;6.93;;;17.70;99.90;;;;;;5031822;28;20288;-57
2021/09/16 10:20:17;;;;;;;8.43;6.53;;;17.70;1.00;;;;;;5031996;28;20678;-58
2021/09/16 10:22:48;;;;;;;10.47;6.90;;;17.80;99.90;;;;;;5032058;28;20213;-60
2021/09/16 10:25:17;;;;;;;9.07;6.57;;;17.90;99.90;;;;;;5031873;28;20210;-59
2021/09/16 10:27:45;;;;;;;8.90;6.13;;;18.00;1.00;;;;;;5031903;28;20238;-60
2021/09/16 10:30:33;;;;;;;8.27;6.87;;;18.00;1.00;;;;;;5031680;28;20736;-61
2021/09/16 10:33:03;;;;;;;8.87;5.80;;;17.90;99.90;;;;;;5032262;28;20558;-63
2021/09/16 10:35:31;;;;;;;7.40;5.03;;;17.90;1.00;;;;;;5031659;28;20616;-63
2021/09/16 10:38:35;;;;;;;7.53;4.90;;;18.10;99.90;;;;;;5032007;28;20206;-61
2021/09/16 10:41:22;;;;;;;7.33;4.90;;;18.40;1.00;;;;;;5032052;28;20205;-61
2021/09/16 10:43:53;;;;;;;9.53;4.17;;;18.60;99.90;;;;;;5032006;28;20202;-63
2021/09/16 10:46:35;;;;;;;7.80;4.70;;;18.60;99.90;;;;;;5030717;28;20222;-62
2021/09/16 10:49:30;;;;;;;10.43;4.77;;;18.50;99.90;;;;;;5031729;28;20747;-61
2021/09/16 10:51:58;;;;;;;6.77;4.77;;;18.30;30.00;;;;;;5031974;28;20252;-58
2021/09/16 10:54:39;;;;;;;6.03;4.60;;;18.00;32.90;;;;;;5031505;28;20210;-60
2021/09/16 10:57:09;;;;;;;6.53;4.53;;;17.80;99.90;;;;;;5031268;28;20226;-60
2021/09/16 11:00:11;;;;;;;8.17;4.13;;;17.70;99.90;;;;;;5031735;28;20593;-63
2021/09/16 11:03:05;;;;;;;7.73;5.30;;;17.70;99.90;;;;;;5031477;28;20263;-62
2021/09/16 11:05:43;;;;;;;7.37;4.57;;;17.50;99.90;;;;;;5024636;28;20301;-61
2021/09/16 11:08:10;;;;;;;6.20;5.60;;;17.60;99.90;;;;;;5031634;28;20225;-62
2021/09/16 11:10:53;;;;;;;6.83;4.87;;;17.70;99.90;;;;;;5031727;28;20318;-62
2021/09/16 11:13:33;;;;;;;6.53;3.43;;;17.90;99.90;;;;;;5031367;28;20694;-63
2021/09/16 11:16:00;;;;;;;4.40;3.30;;;18.10;99.90;;;;;;5030628;28;20276;-63
2021/09/16 11:18:27;;;;;;;6.90;3.83;;;18.30;99.90;;;;;;5031983;28;20209;-63
2021/09/16 11:20:56;;;;;;;7.03;4.20;;;18.50;79.30;;;;;;5031828;28;20206;-64
2021/09/16 11:23:34;;;;;;;5.70;3.90;;;18.40;1.00;;;;;;5031247;28;20256;-65
2021/09/16 11:26:02;;;;;;;6.60;3.80;;;18.20;1.00;;;;;;5031161;28;20720;-64
2021/09/16 11:28:28;;;;;;;5.23;3.20;;;18.20;1.00;;;;;;5031243;28;20227;-59
2021/09/16 11:30:55;;;;;;;5.43;3.47;;;18.50;99.90;;;;;;5031541;28;20218;-60
2021/09/16 11:33:22;;;;;;;6.67;3.80;;;18.70;1.00;;;;;;5031434;28;20206;-60
2021/09/16 11:35:49;;;;;;;5.73;4.30;;;18.80;1.00;;;;;;5030436;28;20276;-60
2021/09/16 11:38:17;;;;;;;7.83;3.93;;;18.60;1.00;;;;;;5030339;28;20207;-60
2021/09/16 11:40:45;;;;;;;6.13;3.93;;;18.60;1.00;;;;;;5031369;28;20210;-62
2021/09/16 11:43:15;;;;;;;7.30;4.00;;;18.60;1.00;;;;;;5031471;28;20241;-61
2021/09/16 11:48:18;;;;;;;5.83;3.20;;;18.60;1.00;;;;;;5098589;22;20236;-63
2021/09/16 11:50:46;;;;;;;5.33;3.53;;;18.60;1.00;;;;;;5031404;28;20635;-63
2021/09/16 11:53:16;;;;;;;7.20;3.50;;;18.50;1.00;;;;;;5031261;28;20249;-63
2021/09/16 11:58:46;;;;;;;6.37;3.43;;;18.40;1.00;;;;;;5411707;22;20242;-63
2021/09/16 12:01:16;;;;;;;14.07;3.67;;;18.30;1.00;;;;;;5025573;28;20686;-63
2021/09/16 12:03:46;;;;;;;6.20;2.70;;;18.20;1.00;;;;;;5034557;28;20206;-64
2021/09/16 12:06:15;;;;;;;4.97;2.50;;;18.30;1.00;;;;;;5034734;28;20230;-63
2021/09/16 12:08:45;;;;;;;5.80;2.60;;;18.40;1.00;;;;;;5034622;28;20230;-67
2021/09/16 12:11:14;;;;;;;4.13;2.37;;;18.50;1.00;;;;;;5034671;28;20670;-67
2021/09/16 12:13:45;;;;;;;3.30;2.30;;;18.60;1.00;;;;;;5034385;28;20209;-66
2021/09/16 12:16:15;;;;;;;8.17;2.70;;;18.60;1.00;;;;;;5034032;28;20226;-61
2021/09/16 12:18:44;;;;;;;6.30;2.60;;;18.60;1.00;;;;;;5034471;28;20206;-62
2021/09/16 12:21:16;;;;;;;4.10;2.30;;;18.50;1.00;;;;;;5034285;28;20264;-62
2021/09/16 12:23:49;;;;;;;6.00;2.40;;;18.40;1.00;;;;;;5034502;28;20207;-62
2021/09/16 12:26:19;;;;;;;6.93;2.33;;;18.50;1.00;;;;;;5033788;28;20226;-62
2021/09/16 12:28:51;;;;;;;5.00;2.60;;;18.60;1.00;;;;;;5034028;28;20222;-62
2021/09/16 12:31:22;;;;;;;7.23;2.50;;;18.70;1.00;;;;;;5034105;28;20290;-62
2021/09/16 12:33:56;;;;;;;5.93;2.27;;;18.80;1.00;;;;;;5034083;28;20624;-62
2021/09/16 12:36:24;;;;;;;5.07;2.67;;;19.00;1.00;;;;;;5033303;28;20233;-62
2021/09/16 12:38:55;;;;;;;5.80;2.80;;;19.20;1.00;;;;;;5033916;28;20206;-62
2021/09/16 12:41:37;;;;;;;7.10;2.40;;;19.10;1.00;;;;;;5034073;28;20206;-62
2021/09/16 12:44:07;;;;;;;4.83;2.50;;;19.30;1.00;;;;;;5034375;28;20210;-60
2021/09/16 12:46:56;;;;;;;8.30;3.53;;;19.40;1.00;;;;;;5033814;28;20233;-61
2021/09/16 12:49:35;;;;;;;5.43;3.13;;;19.40;1.00;;;;;;5033639;28;20222;-60
2021/09/16 12:52:05;;;;;;;6.53;3.80;;;19.40;1.00;;;;;;5033539;28;20202;-60
2021/09/16 12:54:33;;;;;;;5.50;3.23;;;19.20;1.00;;;;;;5033590;28;20210;-63
2021/09/16 12:57:02;;;;;;;5.67;3.13;;;19.20;1.00;;;;;;5033842;28;20226;-61
2021/09/16 12:59:28;;;;;;;8.00;3.97;;;19.40;1.00;;;;;;5033642;28;20202;-60
2021/09/16 13:02:11;;;;;;;10.20;5.13;;;19.60;1.00;;;;;;5033472;28;20283;-59
2021/09/16 13:04:57;;;;;;;7.73;4.60;;;19.80;1.00;;;;;;5033149;28;20237;-60
2021/09/16 13:07:24;;;;;;;6.80;5.70;;;20.00;1.00;;;;;;5033667;28;20236;-60
2021/09/16 13:09:50;;;;;;;6.10;5.33;;;20.00;1.00;;;;;;5032926;28;20222;-60
2021/09/16 13:12:19;;;;;;;5.30;4.40;;;20.00;1.00;;;;;;5033502;28;20588;-61
2021/09/16 13:14:46;;;;;;;5.27;4.10;;;20.10;1.00;;;;;;5032791;28;20210;-61